sensor_id;sensor_type;location;lat;lon;timestamp;temperature;humidity
37285;DHT22;23172;53.550;9.964;2022-09-09T00:31:18;17.40;93.50
37285;DHT22;23172;53.550;9.964;2022-09-09T00:36:24;17.80;97.30
37285;DHT22;23172;53.550;9.964;2022-09-09T00:41:36;18.20;96.70
37285;DHT22;23172;53.550;9.964;2022-09-09T00:46:53;18.40;96.20
37285;DHT22;23172;53.550;9.964;2022-09-09T00:52:06;18.50;95.80
37285;DHT22;23172;53.550;9.964;2022-09-09T00:57:22;18.50;95.60
37285;DHT22;23172;53.550;9.964;2022-09-09T01:02:31;18.60;95.50
37285;DHT22;23172;53.550;9.964;2022-09-09T01:07:36;18.60;95.40
37285;DHT22;23172;53.550;9.964;2022-09-09T01:12:41;18.60;95.00
37285;DHT22;23172;53.550;9.964;2022-09-09T01:17:51;18.60;95.00
37285;DHT22;23172;53.550;9.964;2022-09-09T01:23:00;17.80;96.10
37285;DHT22;23172;53.550;9.964;2022-09-09T01:28:08;17.40;97.10
37285;DHT22;23172;53.550;9.964;2022-09-09T01:33:11;17.10;97.50
37285;DHT22;23172;53.550;9.964;2022-09-09T01:38:14;16.90;97.80
37285;DHT22;23172;53.550;9.964;2022-09-09T01:43:17;16.80;98.00
37285;DHT22;23172;53.550;9.964;2022-09-09T01:53:21;16.70;98.20
37285;DHT22;23172;53.550;9.964;2022-09-09T01:58:27;16.60;98.50
37285;DHT22;23172;53.550;9.964;2022-09-09T02:03:30;16.60;98.60
37285;DHT22;23172;53.550;9.964;2022-09-09T02:08:36;16.50;98.50
37285;DHT22;23172;53.550;9.964;2022-09-09T02:13:40;16.50;98.80
37285;DHT22;23172;53.550;9.964;2022-09-09T02:18:44;16.40;98.90
37285;DHT22;23172;53.550;9.964;2022-09-09T02:28:54;16.40;99.10
37285;DHT22;23172;53.550;9.964;2022-09-09T05:45:23;16.30;99.20
37285;DHT22;23172;53.550;9.964;2022-09-09T05:50:25;15.80;99.90
37285;DHT22;23172;53.550;9.964;2022-09-09T05:55:27;15.90;99.90
37285;DHT22;23172;53.550;9.964;2022-09-09T06:00:30;16.00;99.90
37285;DHT22;23172;53.550;9.964;2022-09-09T06:05:32;16.10;99.70
37285;DHT22;23172;53.550;9.964;2022-09-09T06:10:35;16.20;99.50
37285;DHT22;23172;53.550;9.964;2022-09-09T06:15:38;16.20;99.40
37285;DHT22;23172;53.550;9.964;2022-09-09T06:20:40;16.20;99.50
37285;DHT22;23172;53.550;9.964;2022-09-09T06:25:42;16.20;99.50
37285;DHT22;23172;53.550;9.964;2022-09-09T06:30:45;16.20;99.60
37285;DHT22;23172;53.550;9.964;2022-09-09T06:35:50;16.30;99.70
37285;DHT22;23172;53.550;9.964;2022-09-09T06:40:53;16.30;99.70
37285;DHT22;23172;53.550;9.964;2022-09-09T06:45:57;16.40;99.80
37285;DHT22;23172;53.550;9.964;2022-09-09T06:51:00;16.50;99.70
37285;DHT22;23172;53.550;9.964;2022-09-09T06:56:02;16.60;99.60
37285;DHT22;23172;53.550;9.964;2022-09-09T07:01:06;16.70;99.30
37285;DHT22;23172;53.550;9.964;2022-09-09T07:06:08;16.90;99.20
37285;DHT22;23172;53.550;9.964;2022-09-09T07:11:12;17.10;98.90
37285;DHT22;23172;53.550;9.964;2022-09-09T07:16:16;17.30;98.60
37285;DHT22;23172;53.550;9.964;2022-09-09T07:21:18;17.40;98.40
37285;DHT22;23172;53.550;9.964;2022-09-09T07:26:21;17.50;98.60
37285;DHT22;23172;53.550;9.964;2022-09-09T07:31:25;17.70;98.00
37285;DHT22;23172;53.550;9.964;2022-09-09T07:36:28;17.90;97.70
37285;DHT22;23172;53.550;9.964;2022-09-09T07:41:31;18.10;97.40
37285;DHT22;23172;53.550;9.964;2022-09-09T07:46:35;18.30;96.90
37285;DHT22;23172;53.550;9.964;2022-09-09T07:51:40;18.20;97.10
37285;DHT22;23172;53.550;9.964;2022-09-09T07:56:42;18.10;97.00
37285;DHT22;23172;53.550;9.964;2022-09-09T08:01:45;18.20;97.10
37285;DHT22;23172;53.550;9.964;2022-09-09T08:06:48;18.40;96.70
37285;DHT22;23172;53.550;9.964;2022-09-09T08:11:50;18.60;96.30
37285;DHT22;23172;53.550;9.964;2022-09-09T08:16:53;18.80;95.90
37285;DHT22;23172;53.550;9.964;2022-09-09T08:21:55;19.10;94.60
37285;DHT22;23172;53.550;9.964;2022-09-09T08:26:56;19.40;94.80
37285;DHT22;23172;53.550;9.964;2022-09-09T08:31:59;19.80;94.00
37285;DHT22;23172;53.550;9.964;2022-09-09T08:37:01;20.20;93.50
37285;DHT22;23172;53.550;9.964;2022-09-09T08:42:13;20.80;92.00
37285;DHT22;23172;53.550;9.964;2022-09-09T09:02:30;20.70;91.20
37285;DHT22;23172;53.550;9.964;2022-09-09T09:07:47;21.80;86.90
37285;DHT22;23172;53.550;9.964;2022-09-09T09:12:52;21.50;86.80
37285;DHT22;23172;53.550;9.964;2022-09-09T09:17:55;21.60;86.50
37285;DHT22;23172;53.550;9.964;2022-09-09T09:22:57;21.70;85.70
37285;DHT22;23172;53.550;9.964;2022-09-09T09:28:09;21.90;84.40
37285;DHT22;23172;53.550;9.964;2022-09-09T09:33:22;22.10;84.00
37285;DHT22;23172;53.550;9.964;2022-09-09T09:38:27;22.10;82.20
37285;DHT22;23172;53.550;9.964;2022-09-09T09:43:30;21.80;81.80
37285;DHT22;23172;53.550;9.964;2022-09-09T09:48:34;21.40;83.00
37285;DHT22;23172;53.550;9.964;2022-09-09T09:53:37;21.30;83.10
37285;DHT22;23172;53.550;9.964;2022-09-09T09:58:52;21.60;82.10
37285;DHT22;23172;53.550;9.964;2022-09-09T10:03:58;21.80;80.80
37285;DHT22;23172;53.550;9.964;2022-09-09T10:09:02;21.70;80.80
37285;DHT22;23172;53.550;9.964;2022-09-09T10:14:17;21.70;81.20
37285;DHT22;23172;53.550;9.964;2022-09-09T10:19:30;21.90;80.70
37285;DHT22;23172;53.550;9.964;2022-09-09T10:24:53;22.00;79.90
37285;DHT22;23172;53.550;9.964;2022-09-09T10:30:13;22.40;78.30
37285;DHT22;23172;53.550;9.964;2022-09-09T10:35:27;22.80;76.70
37285;DHT22;23172;53.550;9.964;2022-09-09T10:40:32;22.70;76.00
37285;DHT22;23172;53.550;9.964;2022-09-09T10:45:41;22.30;76.90
37285;DHT22;23172;53.550;9.964;2022-09-09T10:50:55;22.10;77.40
37285;DHT22;23172;53.550;9.964;2022-09-09T10:56:02;22.00;77.00
37285;DHT22;23172;53.550;9.964;2022-09-09T11:01:12;22.10;77.00
37285;DHT22;23172;53.550;9.964;2022-09-09T11:06:19;22.30;76.20
37285;DHT22;23172;53.550;9.964;2022-09-09T11:11:27;22.40;74.80
37285;DHT22;23172;53.550;9.964;2022-09-09T11:16:35;22.40;74.00
37285;DHT22;23172;53.550;9.964;2022-09-09T11:21:46;22.50;73.20
37285;DHT22;23172;53.550;9.964;2022-09-09T11:26:51;22.80;71.90
37285;DHT22;23172;53.550;9.964;2022-09-09T11:32:03;22.90;71.50
37285;DHT22;23172;53.550;9.964;2022-09-09T11:42:43;22.70;71.00
37285;DHT22;23172;53.550;9.964;2022-09-09T11:47:51;22.80;70.70
37285;DHT22;23172;53.550;9.964;2022-09-09T11:58:24;22.70;70.80
37285;DHT22;23172;53.550;9.964;2022-09-09T12:03:39;22.50;72.70
37285;DHT22;23172;53.550;9.964;2022-09-09T12:08:46;22.60;74.20
37285;DHT22;23172;53.550;9.964;2022-09-09T12:13:54;22.40;74.40
37285;DHT22;23172;53.550;9.964;2022-09-09T12:19:04;22.20;74.90
37285;DHT22;23172;53.550;9.964;2022-09-09T12:24:09;22.10;75.40
37285;DHT22;23172;53.550;9.964;2022-09-09T12:29:26;22.10;76.20
37285;DHT22;23172;53.550;9.964;2022-09-09T12:34:35;22.30;76.00
37285;DHT22;23172;53.550;9.964;2022-09-09T12:39:43;22.60;74.10
37285;DHT22;23172;53.550;9.964;2022-09-09T12:44:55;22.60;73.60
37285;DHT22;23172;53.550;9.964;2022-09-09T12:49:58;22.60;74.30
37285;DHT22;23172;53.550;9.964;2022-09-09T12:55:02;22.40;74.60
37285;DHT22;23172;53.550;9.964;2022-09-09T13:00:14;22.10;75.60
37285;DHT22;23172;53.550;9.964;2022-09-09T13:05:20;21.90;76.40
37285;DHT22;23172;53.550;9.964;2022-09-09T13:10:26;21.70;77.50
37285;DHT22;23172;53.550;9.964;2022-09-09T13:15:31;21.50;78.90
37285;DHT22;23172;53.550;9.964;2022-09-09T13:20:32;21.30;80.40
37285;DHT22;23172;53.550;9.964;2022-09-09T13:25:34;21.10;82.00
37285;DHT22;23172;53.550;9.964;2022-09-09T13:30:38;20.90;86.20
37285;DHT22;23172;53.550;9.964;2022-09-09T13:35:46;20.50;89.90
37285;DHT22;23172;53.550;9.964;2022-09-09T13:40:54;20.00;91.50
37285;DHT22;23172;53.550;9.964;2022-09-09T13:46:00;19.70;92.50
37285;DHT22;23172;53.550;9.964;2022-09-09T13:51:03;19.60;93.30
37285;DHT22;23172;53.550;9.964;2022-09-09T13:56:07;19.40;93.90
37285;DHT22;23172;53.550;9.964;2022-09-09T14:01:10;19.30;94.40
37285;DHT22;23172;53.550;9.964;2022-09-09T14:06:12;19.30;94.90
37285;DHT22;23172;53.550;9.964;2022-09-09T14:11:15;19.30;95.20
37285;DHT22;23172;53.550;9.964;2022-09-09T14:16:18;19.30;95.50
37285;DHT22;23172;53.550;9.964;2022-09-09T14:21:20;19.30;95.60
37285;DHT22;23172;53.550;9.964;2022-09-09T14:26:22;19.30;95.80
37285;DHT22;23172;53.550;9.964;2022-09-09T14:31:25;19.30;96.00
37285;DHT22;23172;53.550;9.964;2022-09-09T14:36:27;19.30;96.10
37285;DHT22;23172;53.550;9.964;2022-09-09T14:41:29;19.20;96.10
37285;DHT22;23172;53.550;9.964;2022-09-09T14:46:33;19.10;96.10
37285;DHT22;23172;53.550;9.964;2022-09-09T14:51:34;19.10;96.20
37285;DHT22;23172;53.550;9.964;2022-09-09T14:56:36;19.00;95.90
37285;DHT22;23172;53.550;9.964;2022-09-09T15:01:40;19.00;95.60
37285;DHT22;23172;53.550;9.964;2022-09-09T15:06:42;18.90;95.50
37285;DHT22;23172;53.550;9.964;2022-09-09T15:11:47;18.80;95.40
37285;DHT22;23172;53.550;9.964;2022-09-09T15:16:50;18.80;95.40
37285;DHT22;23172;53.550;9.964;2022-09-09T15:21:52;18.80;95.20
37285;DHT22;23172;53.550;9.964;2022-09-09T15:26:54;18.90;95.20
37285;DHT22;23172;53.550;9.964;2022-09-09T15:31:58;19.00;95.00
37285;DHT22;23172;53.550;9.964;2022-09-09T15:37:00;19.00;94.90
37285;DHT22;23172;53.550;9.964;2022-09-09T15:42:03;19.10;94.80
37285;DHT22;23172;53.550;9.964;2022-09-09T15:47:17;19.20;94.60
37285;DHT22;23172;53.550;9.964;2022-09-09T15:52:23;19.20;94.50
37285;DHT22;23172;53.550;9.964;2022-09-09T15:57:25;19.20;94.50
37285;DHT22;23172;53.550;9.964;2022-09-09T16:08:10;19.20;93.90
37285;DHT22;23172;53.550;9.964;2022-09-09T16:13:12;19.20;93.70
37285;DHT22;23172;53.550;9.964;2022-09-09T16:18:14;19.30;93.50
37285;DHT22;23172;53.550;9.964;2022-09-09T16:23:18;19.30;93.30
37285;DHT22;23172;53.550;9.964;2022-09-09T16:28:21;19.30;93.10
37285;DHT22;23172;53.550;9.964;2022-09-09T16:33:23;19.30;93.20
37285;DHT22;23172;53.550;9.964;2022-09-09T16:38:27;19.30;93.20
37285;DHT22;23172;53.550;9.964;2022-09-09T16:43:29;19.30;93.20
37285;DHT22;23172;53.550;9.964;2022-09-09T16:48:31;19.30;93.10
37285;DHT22;23172;53.550;9.964;2022-09-09T16:53:35;19.30;92.90
37285;DHT22;23172;53.550;9.964;2022-09-09T16:58:49;19.20;92.70
37285;DHT22;23172;53.550;9.964;2022-09-09T17:03:53;19.20;92.60
37285;DHT22;23172;53.550;9.964;2022-09-09T17:09:11;19.20;92.70
37285;DHT22;23172;53.550;9.964;2022-09-09T17:14:15;19.20;92.80
37285;DHT22;23172;53.550;9.964;2022-09-09T17:19:18;19.10;92.90
37285;DHT22;23172;53.550;9.964;2022-09-09T17:24:21;19.10;93.10
37285;DHT22;23172;53.550;9.964;2022-09-09T17:29:23;19.10;93.30
37285;DHT22;23172;53.550;9.964;2022-09-09T17:34:26;18.90;93.50
37285;DHT22;23172;53.550;9.964;2022-09-09T17:39:29;18.80;93.80
37285;DHT22;23172;53.550;9.964;2022-09-09T17:44:31;18.90;94.10
37285;DHT22;23172;53.550;9.964;2022-09-09T17:49:33;18.90;94.40
37285;DHT22;23172;53.550;9.964;2022-09-09T17:54:36;18.90;94.60
37285;DHT22;23172;53.550;9.964;2022-09-09T17:59:38;18.90;94.70
37285;DHT22;23172;53.550;9.964;2022-09-09T18:04:41;18.90;94.90
37285;DHT22;23172;53.550;9.964;2022-09-09T18:09:44;18.90;95.00
37285;DHT22;23172;53.550;9.964;2022-09-09T18:14:46;18.80;95.10
37285;DHT22;23172;53.550;9.964;2022-09-09T18:19:50;18.80;95.30
37285;DHT22;23172;53.550;9.964;2022-09-09T18:24:53;18.80;95.40
37285;DHT22;23172;53.550;9.964;2022-09-09T18:29:55;18.80;95.50
37285;DHT22;23172;53.550;9.964;2022-09-09T18:34:57;18.80;95.80
37285;DHT22;23172;53.550;9.964;2022-09-09T18:40:00;18.80;95.80
37285;DHT22;23172;53.550;9.964;2022-09-09T18:45:02;18.70;95.90
37285;DHT22;23172;53.550;9.964;2022-09-09T18:50:04;18.80;96.00
37285;DHT22;23172;53.550;9.964;2022-09-09T18:55:08;18.90;96.10
37285;DHT22;23172;53.550;9.964;2022-09-09T19:00:11;18.90;96.10
37285;DHT22;23172;53.550;9.964;2022-09-09T19:05:12;19.00;96.00
37285;DHT22;23172;53.550;9.964;2022-09-09T19:10:16;19.00;96.10
37285;DHT22;23172;53.550;9.964;2022-09-09T19:15:18;18.90;96.10
37285;DHT22;23172;53.550;9.964;2022-09-09T19:20:20;19.00;96.20
37285;DHT22;23172;53.550;9.964;2022-09-09T19:25:24;19.00;96.20
37285;DHT22;23172;53.550;9.964;2022-09-09T19:30:26;19.00;96.30
37285;DHT22;23172;53.550;9.964;2022-09-09T19:35:28;19.00;96.40
37285;DHT22;23172;53.550;9.964;2022-09-09T19:40:34;18.90;96.50
37285;DHT22;23172;53.550;9.964;2022-09-09T19:45:36;18.80;96.60
37285;DHT22;23172;53.550;9.964;2022-09-09T19:50:37;18.80;96.70
37285;DHT22;23172;53.550;9.964;2022-09-09T19:55:41;18.80;96.80
37285;DHT22;23172;53.550;9.964;2022-09-09T20:00:43;18.80;96.90
37285;DHT22;23172;53.550;9.964;2022-09-09T20:05:46;18.70;97.30
37285;DHT22;23172;53.550;9.964;2022-09-09T20:10:53;18.60;97.10
37285;DHT22;23172;53.550;9.964;2022-09-09T20:15:56;18.60;97.20
37285;DHT22;23172;53.550;9.964;2022-09-09T20:21:01;18.60;97.20
37285;DHT22;23172;53.550;9.964;2022-09-09T20:26:08;18.60;97.20
37285;DHT22;23172;53.550;9.964;2022-09-09T20:31:11;18.50;97.30
37285;DHT22;23172;53.550;9.964;2022-09-09T20:36:15;18.50;97.30
37285;DHT22;23172;53.550;9.964;2022-09-09T20:41:20;18.50;97.30
37285;DHT22;23172;53.550;9.964;2022-09-09T20:46:24;18.50;97.30
37285;DHT22;23172;53.550;9.964;2022-09-09T20:51:27;18.50;97.40
37285;DHT22;23172;53.550;9.964;2022-09-09T20:56:34;18.50;97.30
37285;DHT22;23172;53.550;9.964;2022-09-09T21:01:37;18.50;97.30
37285;DHT22;23172;53.550;9.964;2022-09-09T21:06:39;18.50;97.30
37285;DHT22;23172;53.550;9.964;2022-09-09T21:11:42;18.50;97.30
37285;DHT22;23172;53.550;9.964;2022-09-09T21:16:44;18.50;97.20
37285;DHT22;23172;53.550;9.964;2022-09-09T21:21:46;18.50;97.20
37285;DHT22;23172;53.550;9.964;2022-09-09T21:26:49;18.50;97.10
37285;DHT22;23172;53.550;9.964;2022-09-09T21:31:53;18.50;97.10
37285;DHT22;23172;53.550;9.964;2022-09-09T21:36:56;18.40;97.00
37285;DHT22;23172;53.550;9.964;2022-09-09T21:41:59;18.40;97.10
37285;DHT22;23172;53.550;9.964;2022-09-09T21:47:01;18.30;97.00
37285;DHT22;23172;53.550;9.964;2022-09-09T21:52:03;19.10;95.80
37285;DHT22;23172;53.550;9.964;2022-09-09T21:57:06;18.70;96.00
37285;DHT22;23172;53.550;9.964;2022-09-09T22:02:08;18.60;96.60
37285;DHT22;23172;53.550;9.964;2022-09-09T22:07:10;18.60;96.30
37285;DHT22;23172;53.550;9.964;2022-09-09T22:12:13;18.40;96.20
37285;DHT22;23172;53.550;9.964;2022-09-09T22:17:15;18.30;96.30
37285;DHT22;23172;53.550;9.964;2022-09-09T22:22:17;18.20;96.40
37285;DHT22;23172;53.550;9.964;2022-09-09T22:27:20;18.20;96.40
37285;DHT22;23172;53.550;9.964;2022-09-09T22:32:22;18.30;96.40
37285;DHT22;23172;53.550;9.964;2022-09-09T22:37:24;18.20;96.40
37285;DHT22;23172;53.550;9.964;2022-09-09T22:42:27;18.20;96.40
37285;DHT22;23172;53.550;9.964;2022-09-09T22:47:29;18.20;96.40
37285;DHT22;23172;53.550;9.964;2022-09-09T22:52:31;18.10;96.60
37285;DHT22;23172;53.550;9.964;2022-09-09T22:57:34;18.10;96.80
37285;DHT22;23172;53.550;9.964;2022-09-09T23:02:36;18.00;96.90
37285;DHT22;23172;53.550;9.964;2022-09-09T23:07:38;18.00;97.10
37285;DHT22;23172;53.550;9.964;2022-09-09T23:12:41;18.70;96.20
37285;DHT22;23172;53.550;9.964;2022-09-09T23:17:43;18.30;96.90
37285;DHT22;23172;53.550;9.964;2022-09-09T23:22:45;18.00;97.30
37285;DHT22;23172;53.550;9.964;2022-09-09T23:27:49;18.00;97.40
37285;DHT22;23172;53.550;9.964;2022-09-09T23:32:50;18.00;97.40
37285;DHT22;23172;53.550;9.964;2022-09-09T23:37:52;18.00;97.30
37285;DHT22;23172;53.550;9.964;2022-09-09T23:42:55;18.80;96.30
37285;DHT22;23172;53.550;9.964;2022-09-09T23:47:57;18.40;96.70
37285;DHT22;23172;53.550;9.964;2022-09-09T23:52:59;18.30;97.00
37285;DHT22;23172;53.550;9.964;2022-09-09T23:58:02;18.20;97.10
